createdAt,value
2018-06-03T16:32:52.617Z,11.10
2018-06-03T16:35:21.756Z,9.70
2018-06-03T16:37:50.228Z,10.10
2018-06-03T16:40:18.714Z,9.93
2018-06-03T16:42:47.174Z,11.00
2018-06-03T16:45:15.829Z,10.70
2018-06-03T16:47:44.450Z,11.10
2018-06-03T16:50:12.868Z,11.90
2018-06-03T16:52:41.463Z,10.30
2018-06-03T16:55:09.980Z,11.63
2018-06-03T16:57:39.009Z,10.97
2018-06-03T17:00:07.424Z,33.90
2018-06-03T17:02:35.930Z,16.73
2018-06-03T17:05:04.469Z,12.40
2018-06-03T17:07:33.185Z,18.33
2018-06-03T17:10:01.626Z,12.53
2018-06-03T17:12:30.246Z,11.23
2018-06-03T17:14:59.729Z,10.10
2018-06-03T17:17:28.363Z,11.30
2018-06-03T17:19:56.991Z,10.00
2018-06-03T17:22:25.430Z,9.97
2018-06-03T17:24:53.922Z,11.23
2018-06-03T17:27:23.963Z,9.03
2018-06-03T17:29:52.450Z,9.20
2018-06-03T17:32:20.948Z,9.40
2018-06-03T17:34:49.489Z,10.27
2018-06-03T17:37:17.925Z,9.80
2018-06-03T17:39:46.412Z,10.50
2018-06-03T17:42:14.820Z,8.57
2018-06-03T17:44:43.451Z,9.00
2018-06-03T17:47:11.837Z,10.57
2018-06-03T17:49:40.329Z,9.87
2018-06-03T17:52:08.735Z,12.33
2018-06-03T17:54:37.316Z,23.03
2018-06-03T17:57:05.669Z,9.70
2018-06-03T17:59:34.032Z,12.97
2018-06-03T18:02:02.808Z,11.40
2018-06-03T18:04:31.439Z,11.63
2018-06-03T18:07:04.207Z,9.57
2018-06-03T18:09:32.643Z,9.60
2018-06-03T18:12:01.525Z,10.23
2018-06-03T18:14:30.017Z,10.37
2018-06-03T18:16:58.536Z,10.40
2018-06-03T18:19:27.723Z,10.50
2018-06-03T18:21:57.019Z,9.10
2018-06-03T18:24:25.619Z,9.87
2018-06-03T18:26:55.128Z,10.40
2018-06-03T18:29:23.577Z,10.37
2018-06-03T18:31:52.875Z,10.70
2018-06-03T18:34:21.245Z,10.30
2018-06-03T18:36:50.227Z,10.70
2018-06-03T18:39:18.965Z,10.70
2018-06-03T18:41:48.943Z,11.40
2018-06-03T18:44:19.904Z,9.93
2018-06-03T18:46:48.269Z,11.63
2018-06-03T18:49:16.929Z,10.10
2018-06-03T18:51:45.314Z,10.13
2018-06-03T18:54:13.747Z,10.60
2018-06-03T18:56:42.324Z,10.47
2018-06-03T18:59:10.920Z,10.40
2018-06-03T19:01:39.272Z,10.57
2018-06-03T19:04:07.756Z,11.00
2018-06-03T19:06:36.309Z,9.70
2018-06-03T19:09:06.788Z,10.77
2018-06-03T19:11:35.561Z,9.20
2018-06-03T19:14:04.086Z,10.10
2018-06-03T19:16:32.699Z,11.23
2018-06-03T19:19:02.993Z,9.93
2018-06-03T19:21:31.510Z,9.50
2018-06-03T19:23:59.882Z,9.87
2018-06-03T19:26:28.357Z,11.07
2018-06-03T19:28:58.462Z,10.13
2018-06-03T19:31:26.979Z,11.03
2018-06-03T19:33:55.458Z,11.07
2018-06-03T19:36:23.989Z,11.20
2018-06-03T19:38:52.365Z,11.57
2018-06-03T19:41:20.919Z,11.87
2018-06-03T19:43:49.487Z,10.50
2018-06-03T19:46:17.912Z,11.00
2018-06-03T19:48:46.268Z,11.40
2018-06-03T19:51:15.183Z,10.80
2018-06-03T19:53:46.655Z,11.57
2018-06-03T19:56:15.460Z,10.87
2018-06-03T19:58:45.886Z,12.40
2018-06-03T20:01:14.257Z,11.27
2018-06-03T20:03:42.798Z,12.00
2018-06-03T20:06:11.436Z,12.10
2018-06-03T20:08:51.290Z,13.90
2018-06-03T20:11:20.585Z,13.27
2018-06-03T20:13:49.074Z,13.30
2018-06-03T20:16:17.772Z,14.30
2018-06-03T20:18:46.102Z,14.07
2018-06-03T20:21:14.664Z,14.60
2018-06-03T20:23:43.126Z,14.90
2018-06-03T20:26:11.856Z,15.30
2018-06-03T20:28:40.934Z,16.30
2018-06-03T20:31:09.466Z,15.40
2018-06-03T20:33:38.189Z,15.63
2018-06-03T20:36:07.755Z,15.67
2018-06-03T20:38:36.496Z,17.07
2018-06-03T20:41:06.801Z,16.90
2018-06-03T20:43:35.362Z,17.00
2018-06-03T20:46:04.009Z,16.57
2018-06-03T20:48:32.530Z,19.50
2018-06-03T20:51:01.008Z,17.03
2018-06-03T20:53:29.633Z,16.50
2018-06-03T20:55:58.057Z,16.10
2018-06-03T20:58:26.578Z,15.70
2018-06-03T21:00:55.544Z,15.33
2018-06-03T21:03:24.124Z,15.00
2018-06-03T21:05:52.517Z,17.77
2018-06-03T21:08:20.703Z,17.97
2018-06-03T21:10:49.268Z,15.83
2018-06-03T21:13:17.362Z,16.00
2018-06-03T21:15:48.995Z,16.33
2018-06-03T21:18:17.507Z,15.83
2018-06-03T21:20:46.373Z,16.10
2018-06-03T21:23:15.695Z,17.97
2018-06-03T21:25:45.360Z,16.40
2018-06-03T21:28:13.836Z,18.40
2018-06-03T21:30:42.314Z,16.10
2018-06-03T21:33:11.502Z,16.67
2018-06-03T21:35:40.514Z,16.53
2018-06-03T21:38:09.037Z,16.60
2018-06-03T21:40:37.455Z,18.23
2018-06-03T21:43:06.270Z,17.23
2018-06-03T21:45:34.922Z,19.10
2018-06-03T21:48:04.311Z,17.97
2018-06-03T21:50:33.187Z,17.80
2018-06-03T21:53:03.989Z,18.83
2018-06-03T21:55:32.696Z,17.70
2018-06-03T21:58:01.280Z,18.13
2018-06-03T22:00:30.603Z,17.47
2018-06-03T22:02:59.880Z,17.93
2018-06-03T22:05:28.322Z,19.57
2018-06-03T22:07:57.485Z,18.57
2018-06-03T22:10:26.090Z,18.53
2018-06-03T22:12:54.821Z,19.10
2018-06-03T22:15:23.310Z,18.50
2018-06-03T22:17:51.431Z,19.80
2018-06-03T22:20:19.915Z,20.23
2018-06-03T22:22:48.424Z,20.00
2018-06-03T22:25:17.593Z,20.30
2018-06-03T22:27:45.937Z,20.87
2018-06-03T22:30:14.806Z,19.30
2018-06-03T22:32:43.476Z,20.20
2018-06-03T22:35:12.464Z,19.73
2018-06-03T22:37:43.078Z,19.10
2018-06-03T22:40:11.441Z,20.27
2018-06-03T22:42:39.874Z,21.80
2018-06-03T22:45:09.577Z,20.13
2018-06-03T22:47:38.757Z,20.30
2018-06-03T22:50:07.441Z,20.07
2018-06-03T22:52:35.973Z,20.10
2018-06-03T22:55:04.442Z,21.87
2018-06-03T22:57:42.314Z,22.73
2018-06-03T23:00:12.348Z,20.70
2018-06-03T23:02:44.891Z,20.10
2018-06-03T23:05:13.369Z,21.10
2018-06-03T23:07:42.061Z,21.70
2018-06-03T23:10:11.182Z,21.80
2018-06-03T23:12:40.424Z,21.13
2018-06-03T23:15:08.865Z,20.63
2018-06-03T23:17:37.319Z,21.77
2018-06-03T23:20:05.846Z,20.30
2018-06-03T23:22:34.903Z,21.50
2018-06-03T23:25:03.291Z,20.87
2018-06-03T23:27:31.942Z,20.17
2018-06-03T23:30:01.269Z,22.40
2018-06-03T23:32:29.705Z,20.23
2018-06-03T23:34:59.801Z,21.73
2018-06-03T23:37:29.185Z,21.70
2018-06-03T23:39:57.651Z,21.73
2018-06-03T23:42:26.639Z,22.07
2018-06-03T23:44:55.259Z,22.00
2018-06-03T23:47:23.679Z,21.47
2018-06-03T23:49:52.892Z,22.47
2018-06-03T23:52:21.268Z,22.47
2018-06-03T23:54:50.219Z,23.87
2018-06-03T23:57:18.688Z,21.97
2018-06-03T23:59:54.096Z,23.03
